createdAt,value
2019-05-21T00:00:58.946Z,13.90
2019-05-21T00:03:27.465Z,13.90
2019-05-21T00:05:55.910Z,13.90
2019-05-21T00:08:24.481Z,13.90
2019-05-21T00:10:53.092Z,13.80
2019-05-21T00:13:21.686Z,13.80
2019-05-21T00:15:50.187Z,13.80
2019-05-21T00:18:18.658Z,13.80
2019-05-21T00:20:47.319Z,13.80
2019-05-21T00:23:15.882Z,13.80
2019-05-21T00:25:44.374Z,13.80
2019-05-21T00:28:34.274Z,13.80
2019-05-21T00:31:38.760Z,13.80
2019-05-21T00:34:44.417Z,13.80
2019-05-21T00:37:48.853Z,13.80
2019-05-21T00:40:52.971Z,13.80
2019-05-21T00:43:35.955Z,13.80
2019-05-21T00:46:04.721Z,13.80
2019-05-21T00:48:33.282Z,13.70
2019-05-21T00:51:01.838Z,13.70
2019-05-21T00:53:30.454Z,13.70
2019-05-21T00:55:59.029Z,13.70
2019-05-21T00:58:27.670Z,13.70
2019-05-21T01:00:56.263Z,13.70
2019-05-21T01:03:24.845Z,13.70
2019-05-21T01:05:53.496Z,13.70
2019-05-21T01:08:22.292Z,13.70
2019-05-21T01:10:50.955Z,13.60
2019-05-21T01:13:19.536Z,13.70
2019-05-21T01:15:48.165Z,13.70
2019-05-21T01:18:16.720Z,13.70
2019-05-21T01:20:45.281Z,13.70
2019-05-21T01:23:13.970Z,13.70
2019-05-21T01:25:42.739Z,13.70
2019-05-21T01:28:11.386Z,13.70
2019-05-21T01:30:39.996Z,13.70
2019-05-21T01:33:08.738Z,13.70
2019-05-21T01:35:37.376Z,13.70
2019-05-21T01:38:06.022Z,13.70
2019-05-21T01:40:34.685Z,13.60
2019-05-21T01:43:03.633Z,13.60
2019-05-21T01:45:32.208Z,13.50
2019-05-21T01:48:00.816Z,13.50
2019-05-21T01:50:29.480Z,13.50
2019-05-21T01:52:58.046Z,13.50
2019-05-21T01:55:26.613Z,13.50
2019-05-21T01:57:55.201Z,13.50
2019-05-21T02:00:23.869Z,13.50
2019-05-21T02:02:52.419Z,13.50
2019-05-21T02:05:32.475Z,13.40
2019-05-21T02:07:51.357Z,13.40
2019-05-21T02:10:20.055Z,13.40
2019-05-21T02:12:48.800Z,13.40
2019-05-21T02:15:17.718Z,13.40
2019-05-21T02:17:46.315Z,13.40
2019-05-21T02:20:15.826Z,13.40
2019-05-21T02:22:44.417Z,13.40
2019-05-21T02:25:13.362Z,13.40
2019-05-21T02:27:41.953Z,13.40
2019-05-21T02:30:12.213Z,13.40
2019-05-21T02:32:40.786Z,13.40
2019-05-21T02:35:09.533Z,13.30
2019-05-21T02:37:38.129Z,13.30
2019-05-21T02:40:07.341Z,13.30
2019-05-21T02:42:36.080Z,13.20
2019-05-21T02:45:06.906Z,13.20
2019-05-21T02:47:35.623Z,13.20
2019-05-21T02:50:11.867Z,13.20
2019-05-21T02:52:40.512Z,13.20
2019-05-21T02:55:09.648Z,13.20
2019-05-21T02:57:39.859Z,13.20
2019-05-21T03:00:33.128Z,13.20
2019-05-21T03:03:03.478Z,13.20
2019-05-21T03:05:32.034Z,13.10
2019-05-21T03:08:00.699Z,13.10
2019-05-21T03:10:31.957Z,13.20
2019-05-21T03:13:00.623Z,13.20
2019-05-21T03:15:29.252Z,13.20
2019-05-21T03:17:58.103Z,13.20
2019-05-21T03:20:26.760Z,13.10
2019-05-21T03:22:55.489Z,13.10
2019-05-21T03:25:24.100Z,13.10
2019-05-21T03:27:52.687Z,13.10
2019-05-21T03:30:21.713Z,13.10
2019-05-21T03:32:50.328Z,13.10
2019-05-21T03:35:19.134Z,13.10
2019-05-21T03:37:47.706Z,13.00
2019-05-21T03:40:16.834Z,13.00
2019-05-21T03:42:45.528Z,13.00
2019-05-21T03:45:14.464Z,13.00
2019-05-21T03:47:43.181Z,13.00
2019-05-21T03:50:12.041Z,13.00
2019-05-21T03:52:40.634Z,13.00
2019-05-21T03:55:09.713Z,13.10
2019-05-21T03:57:38.294Z,13.10
2019-05-21T04:00:09.370Z,13.00
2019-05-21T04:02:38.208Z,13.10
2019-05-21T04:05:07.161Z,13.10
2019-05-21T04:07:35.717Z,13.00
2019-05-21T04:10:07.121Z,13.10
2019-05-21T04:12:35.700Z,13.00
2019-05-21T04:15:07.750Z,13.10
2019-05-21T04:17:50.358Z,13.10
2019-05-21T04:20:19.236Z,13.10
2019-05-21T04:22:53.821Z,13.10
2019-05-21T04:25:22.911Z,13.10
2019-05-21T04:27:51.537Z,13.10
2019-05-21T04:30:20.964Z,13.10
2019-05-21T04:32:49.531Z,13.10
2019-05-21T04:35:18.144Z,13.00
2019-05-21T04:37:46.704Z,13.00
2019-05-21T04:40:15.523Z,13.10
2019-05-21T04:42:44.497Z,13.10
2019-05-21T04:45:13.427Z,13.10
2019-05-21T04:47:42.157Z,13.10
2019-05-21T04:50:11.067Z,13.10
2019-05-21T04:52:39.619Z,13.10
2019-05-21T04:55:09.261Z,13.10
2019-05-21T04:57:37.806Z,13.10
2019-05-21T05:00:07.115Z,13.10
2019-05-21T05:02:35.674Z,13.10
2019-05-21T05:05:06.083Z,13.10
2019-05-21T05:07:34.676Z,13.10
2019-05-21T05:10:03.696Z,13.10
2019-05-21T05:12:32.259Z,13.10
2019-05-21T05:15:00.820Z,13.10
2019-05-21T05:17:29.410Z,13.10
2019-05-21T05:19:57.984Z,13.10
2019-05-21T05:22:26.527Z,13.10
2019-05-21T05:24:55.125Z,13.10
2019-05-21T05:27:23.697Z,13.10
2019-05-21T05:29:52.263Z,13.20
2019-05-21T05:32:20.927Z,12.90
2019-05-21T05:34:49.494Z,13.20
2019-05-21T05:37:18.257Z,13.20
2019-05-21T05:39:46.902Z,13.20
2019-05-21T05:42:15.564Z,13.20
2019-05-21T05:44:44.140Z,13.20
2019-05-21T05:47:12.708Z,13.20
2019-05-21T05:49:42.976Z,13.20
2019-05-21T05:52:11.592Z,13.20
2019-05-21T05:54:40.225Z,13.20
2019-05-21T05:57:08.900Z,13.20
2019-05-21T05:59:37.462Z,13.20
2019-05-21T06:02:06.291Z,13.20
2019-05-21T06:04:34.916Z,13.10
2019-05-21T06:07:03.594Z,13.10
2019-05-21T06:09:32.208Z,13.10
2019-05-21T06:12:00.842Z,13.10
2019-05-21T06:14:29.439Z,13.10
2019-05-21T06:16:58.000Z,13.20
2019-05-21T06:19:26.546Z,13.20
2019-05-21T06:21:55.507Z,13.20
2019-05-21T06:24:24.161Z,13.20
2019-05-21T06:26:52.753Z,13.20
2019-05-21T06:29:21.324Z,13.20
2019-05-21T06:31:49.872Z,13.20
2019-05-21T06:34:18.448Z,13.20
2019-05-21T06:36:47.015Z,13.20
2019-05-21T06:39:15.644Z,13.20
2019-05-21T06:41:44.204Z,13.20
2019-05-21T06:44:12.775Z,13.20
2019-05-21T06:46:41.348Z,13.30
2019-05-21T06:49:09.985Z,13.30
2019-05-21T06:51:38.595Z,13.30
2019-05-21T06:54:07.204Z,13.30
2019-05-21T06:56:35.833Z,13.20
2019-05-21T06:59:04.978Z,13.20
2019-05-21T07:01:33.674Z,13.30
2019-05-21T07:04:02.282Z,13.30
2019-05-21T07:06:30.945Z,13.20
2019-05-21T07:08:59.521Z,13.20
2019-05-21T07:11:28.233Z,13.20
2019-05-21T07:13:56.843Z,13.20
2019-05-21T07:16:25.392Z,13.20
2019-05-21T07:18:53.965Z,13.20
2019-05-21T07:21:22.524Z,13.20
2019-05-21T07:23:51.319Z,13.30
2019-05-21T07:26:19.995Z,13.30
2019-05-21T07:28:48.810Z,13.40
2019-05-21T07:31:17.737Z,13.40
2019-05-21T07:33:46.332Z,13.40
2019-05-21T07:36:15.085Z,13.30
2019-05-21T07:38:53.541Z,13.30
2019-05-21T07:41:13.993Z,13.40
2019-05-21T07:43:42.673Z,13.40
2019-05-21T07:46:11.212Z,13.50
2019-05-21T07:48:45.894Z,13.50
2019-05-21T07:51:14.585Z,13.60
2019-05-21T07:53:43.140Z,13.60
2019-05-21T07:56:11.759Z,13.60
2019-05-21T07:58:40.328Z,13.60
2019-05-21T08:01:08.979Z,13.60
2019-05-21T08:03:37.567Z,13.60
2019-05-21T08:06:06.992Z,13.60
2019-05-21T08:08:35.603Z,13.80
2019-05-21T08:11:04.233Z,13.60
2019-05-21T08:13:32.815Z,13.60
2019-05-21T08:16:01.418Z,13.60
2019-05-21T08:18:30.640Z,13.60
2019-05-21T08:20:59.227Z,13.50
2019-05-21T08:23:27.818Z,13.50
2019-05-21T08:25:56.415Z,13.60
2019-05-21T08:28:25.081Z,13.60
2019-05-21T08:30:53.614Z,13.60
2019-05-21T08:33:22.207Z,13.60
2019-05-21T08:35:50.821Z,13.50
2019-05-21T08:38:19.478Z,13.40
2019-05-21T08:40:48.140Z,13.40
2019-05-21T08:43:16.780Z,13.40
2019-05-21T08:45:45.387Z,13.40
2019-05-21T08:48:14.022Z,13.40
2019-05-21T08:50:42.695Z,13.40
2019-05-21T08:53:11.582Z,13.40
2019-05-21T08:55:40.328Z,13.50
2019-05-21T08:58:09.014Z,13.50
2019-05-21T09:00:37.700Z,13.50
2019-05-21T09:03:06.493Z,13.50
2019-05-21T09:05:35.105Z,13.50
2019-05-21T09:08:04.061Z,13.60
2019-05-21T09:10:32.622Z,13.50
2019-05-21T09:13:01.178Z,13.60
2019-05-21T09:15:29.870Z,13.60
2019-05-21T09:17:58.503Z,13.60
2019-05-21T09:20:27.055Z,13.60
2019-05-21T09:22:56.947Z,13.60
2019-05-21T09:25:25.580Z,13.70
2019-05-21T09:27:54.179Z,13.80
2019-05-21T09:30:22.880Z,13.70
2019-05-21T09:32:51.436Z,13.70
2019-05-21T09:35:21.401Z,13.70
2019-05-21T09:37:49.957Z,13.70
2019-05-21T09:40:19.124Z,13.70
2019-05-21T09:42:47.707Z,13.70
2019-05-21T09:45:16.597Z,13.70
2019-05-21T09:47:45.242Z,13.80
2019-05-21T09:50:14.538Z,13.80
2019-05-21T09:52:43.129Z,13.90
2019-05-21T09:55:11.830Z,13.90
2019-05-21T09:57:45.007Z,13.90
2019-05-21T10:00:16.477Z,14.00
2019-05-21T10:02:45.032Z,14.10
2019-05-21T10:05:13.849Z,14.10
2019-05-21T10:07:42.407Z,14.10
2019-05-21T10:10:11.140Z,14.20
2019-05-21T10:12:39.705Z,14.20
2019-05-21T10:15:09.019Z,14.20
2019-05-21T10:17:37.619Z,14.20
2019-05-21T10:20:06.520Z,14.20
2019-05-21T10:22:35.144Z,14.20
2019-05-21T10:25:04.941Z,14.20
2019-05-21T10:27:33.575Z,14.20
2019-05-21T10:30:02.250Z,14.30
2019-05-21T10:32:30.854Z,14.30
2019-05-21T10:34:59.428Z,14.40
2019-05-21T10:37:28.158Z,14.50
2019-05-21T10:39:56.751Z,14.50
2019-05-21T10:42:25.336Z,14.70
2019-05-21T10:44:53.961Z,14.70
2019-05-21T10:47:22.635Z,14.80
2019-05-21T10:49:51.252Z,14.90
2019-05-21T10:52:20.338Z,14.80
2019-05-21T10:54:48.926Z,14.80
2019-05-21T10:57:17.744Z,14.80
2019-05-21T10:59:46.461Z,14.80
2019-05-21T11:02:23.086Z,14.80
2019-05-21T11:05:08.352Z,14.80
2019-05-21T11:07:37.004Z,14.80
2019-05-21T11:10:08.293Z,14.80
2019-05-21T11:12:37.013Z,14.80
2019-05-21T11:15:07.439Z,14.90
2019-05-21T11:17:49.923Z,15.00
2019-05-21T11:20:07.170Z,15.00
2019-05-21T11:22:35.799Z,15.00
2019-05-21T11:25:07.094Z,15.10
2019-05-21T11:27:35.775Z,15.10
2019-05-21T11:30:09.098Z,15.10
2019-05-21T11:32:37.663Z,15.10
2019-05-21T11:35:07.937Z,15.10
2019-05-21T11:37:36.571Z,15.20
2019-05-21T11:40:08.491Z,15.20
2019-05-21T11:42:36.985Z,15.30
2019-05-21T11:45:07.184Z,15.30
2019-05-21T11:47:35.940Z,15.30
2019-05-21T11:50:08.909Z,15.30
2019-05-21T11:52:37.612Z,15.40
2019-05-21T11:55:06.563Z,15.50
2019-05-21T11:57:35.251Z,15.60
2019-05-21T12:00:06.845Z,15.60
2019-05-21T12:02:35.425Z,15.60
2019-05-21T12:05:06.305Z,15.70
2019-05-21T12:07:34.883Z,15.80
2019-05-21T12:10:07.329Z,15.80
2019-05-21T12:12:36.268Z,15.80
2019-05-21T12:15:08.331Z,15.90
2019-05-21T12:17:36.947Z,15.90
2019-05-21T12:20:07.529Z,16.00
2019-05-21T12:22:36.108Z,16.10
2019-05-21T12:25:06.368Z,16.10
2019-05-21T12:27:34.975Z,16.00
2019-05-21T12:30:07.386Z,16.30
2019-05-21T12:32:35.972Z,16.30
2019-05-21T12:35:05.395Z,16.30
2019-05-21T12:37:33.961Z,16.30
2019-05-21T12:40:03.082Z,16.20
2019-05-21T12:42:31.824Z,16.10
2019-05-21T12:45:00.749Z,16.00
2019-05-21T12:47:29.310Z,15.90
2019-05-21T12:49:57.857Z,15.90
2019-05-21T12:52:26.585Z,15.90
2019-05-21T12:54:55.214Z,15.80
2019-05-21T12:57:23.873Z,15.80
2019-05-21T12:59:52.442Z,15.70
2019-05-21T13:02:21.004Z,15.60
2019-05-21T13:04:49.642Z,15.50
2019-05-21T13:07:18.223Z,15.40
2019-05-21T13:09:46.810Z,15.30
2019-05-21T13:12:16.546Z,15.20
2019-05-21T13:14:45.101Z,15.20
2019-05-21T13:17:14.166Z,15.20
2019-05-21T13:19:43.013Z,15.20
2019-05-21T13:22:11.572Z,15.10
2019-05-21T13:24:40.159Z,15.10
2019-05-21T13:27:08.792Z,15.10
2019-05-21T13:29:37.404Z,15.10
2019-05-21T13:32:06.092Z,15.00
2019-05-21T13:34:34.720Z,14.90
2019-05-21T13:37:03.451Z,14.90
2019-05-21T13:39:48.431Z,14.90
2019-05-21T13:42:02.349Z,14.80
2019-05-21T13:44:30.914Z,14.80
2019-05-21T13:46:59.869Z,14.90
2019-05-21T13:49:28.477Z,14.90
2019-05-21T13:51:57.234Z,14.90
2019-05-21T13:54:26.012Z,14.90
2019-05-21T13:56:54.687Z,14.90
2019-05-21T13:59:23.248Z,14.90
2019-05-21T14:01:51.963Z,14.90
2019-05-21T14:04:20.890Z,14.90
2019-05-21T14:06:49.519Z,14.80
2019-05-21T14:09:18.194Z,14.80
2019-05-21T14:11:46.843Z,14.80
2019-05-21T14:14:15.544Z,14.80
2019-05-21T14:16:44.138Z,14.80
2019-05-21T14:19:12.701Z,14.90
2019-05-21T14:21:41.321Z,14.90
2019-05-21T14:24:09.899Z,14.90
2019-05-21T14:26:38.533Z,14.90
2019-05-21T14:29:07.225Z,15.00
2019-05-21T14:31:35.793Z,15.00
2019-05-21T14:34:04.789Z,15.10
2019-05-21T14:36:33.486Z,15.10
2019-05-21T14:39:06.108Z,15.10
2019-05-21T14:42:17.724Z,15.10
2019-05-21T14:44:46.279Z,15.10
2019-05-21T14:47:15.129Z,15.10
2019-05-21T14:49:43.890Z,15.10
2019-05-21T14:52:12.520Z,15.10
2019-05-21T14:54:41.188Z,15.10
2019-05-21T14:57:12.551Z,15.10
2019-05-21T14:59:41.553Z,15.00
2019-05-21T15:02:10.585Z,15.00
2019-05-21T15:04:39.481Z,15.00
2019-05-21T15:07:08.095Z,15.00
2019-05-21T15:09:36.753Z,15.00
2019-05-21T15:12:05.716Z,15.00
2019-05-21T15:14:34.330Z,15.00
2019-05-21T15:17:03.108Z,15.00
2019-05-21T15:19:31.783Z,15.00
2019-05-21T15:22:00.349Z,14.90
2019-05-21T15:24:28.915Z,14.90
2019-05-21T15:26:57.525Z,14.90
2019-05-21T15:29:26.076Z,14.80
2019-05-21T15:31:54.692Z,14.80
2019-05-21T15:34:23.245Z,14.80
2019-05-21T15:36:51.809Z,14.80
2019-05-21T15:39:20.395Z,14.80
2019-05-21T15:41:48.966Z,14.80
2019-05-21T15:44:17.566Z,14.80
2019-05-21T15:46:50.001Z,14.80
2019-05-21T15:49:33.281Z,14.70
2019-05-21T15:51:48.223Z,14.70
2019-05-21T15:54:16.910Z,14.70
2019-05-21T15:56:45.592Z,14.60
2019-05-21T15:59:14.177Z,14.60
2019-05-21T16:01:42.910Z,14.60
2019-05-21T16:04:15.858Z,14.50
2019-05-21T16:06:41.777Z,14.50
2019-05-21T16:09:10.463Z,14.40
2019-05-21T16:11:39.097Z,14.40
2019-05-21T16:14:07.729Z,14.30
2019-05-21T16:16:36.389Z,14.20
2019-05-21T16:19:05.389Z,14.20
2019-05-21T16:21:33.986Z,14.20
2019-05-21T16:24:02.560Z,14.10
2019-05-21T16:26:31.130Z,14.10
2019-05-21T16:28:59.729Z,14.10
2019-05-21T16:31:28.841Z,14.10
2019-05-21T16:33:57.597Z,14.00
2019-05-21T16:36:26.323Z,14.00
2019-05-21T16:38:55.013Z,14.00
2019-05-21T16:41:24.825Z,14.10
2019-05-21T16:43:53.669Z,14.10
2019-05-21T16:46:22.535Z,14.10
2019-05-21T16:48:51.125Z,14.10
2019-05-21T16:51:19.752Z,14.10
2019-05-21T16:53:48.335Z,14.10
2019-05-21T16:56:17.317Z,14.10
2019-05-21T16:58:45.848Z,14.10
2019-05-21T17:01:14.858Z,14.10
2019-05-21T17:03:43.433Z,14.10
2019-05-21T17:06:12.782Z,14.10
2019-05-21T17:08:41.392Z,14.10
2019-05-21T17:11:10.668Z,14.10
2019-05-21T17:13:39.202Z,14.10
2019-05-21T17:16:08.205Z,14.10
2019-05-21T17:18:37.610Z,14.00
2019-05-21T17:21:12.332Z,14.00
2019-05-21T17:23:41.185Z,14.00
2019-05-21T17:26:09.844Z,14.00
2019-05-21T17:28:38.630Z,14.00
2019-05-21T17:31:07.944Z,14.00
2019-05-21T17:33:36.900Z,14.00
2019-05-21T17:36:05.816Z,14.00
2019-05-21T17:38:34.739Z,14.00
2019-05-21T17:41:03.770Z,14.00
2019-05-21T17:43:32.380Z,14.00
2019-05-21T17:46:01.065Z,14.00
2019-05-21T17:48:29.719Z,14.00
2019-05-21T17:51:01.128Z,14.00
2019-05-21T17:53:34.060Z,14.00
2019-05-21T17:56:02.849Z,14.00
2019-05-21T17:58:31.811Z,14.00
2019-05-21T18:01:02.187Z,14.00
2019-05-21T18:03:31.905Z,14.00
2019-05-21T18:06:00.932Z,14.00
2019-05-21T18:08:29.566Z,14.00
2019-05-21T18:11:02.551Z,13.90
2019-05-21T18:13:29.451Z,13.90
2019-05-21T18:15:58.038Z,13.90
2019-05-21T18:18:28.145Z,13.90
2019-05-21T18:20:57.352Z,13.90
2019-05-21T18:23:27.351Z,13.90
2019-05-21T18:25:55.996Z,13.80
2019-05-21T18:28:24.639Z,13.80
2019-05-21T18:30:53.286Z,13.80
2019-05-21T18:33:21.964Z,13.80
2019-05-21T18:35:50.566Z,13.80
2019-05-21T18:38:19.171Z,13.80
2019-05-21T18:40:47.887Z,13.80
2019-05-21T18:43:16.679Z,13.80
2019-05-21T18:45:45.614Z,13.80
2019-05-21T18:48:14.504Z,13.80
2019-05-21T18:50:43.177Z,13.80
2019-05-21T18:53:11.820Z,13.80
2019-05-21T18:55:40.562Z,13.80
2019-05-21T18:58:09.298Z,13.80
2019-05-21T19:00:38.252Z,13.80
2019-05-21T19:03:06.945Z,13.80
2019-05-21T19:05:35.508Z,13.70
2019-05-21T19:08:04.519Z,13.70
2019-05-21T19:10:33.397Z,13.70
2019-05-21T19:13:02.154Z,13.80
2019-05-21T19:15:31.511Z,13.70
2019-05-21T19:18:00.537Z,13.70
2019-05-21T19:20:29.160Z,13.70
2019-05-21T19:23:01.039Z,13.70
2019-05-21T19:25:29.806Z,13.70
2019-05-21T19:27:58.395Z,13.70
2019-05-21T19:30:27.681Z,13.60
2019-05-21T19:32:57.163Z,13.70
2019-05-21T19:35:25.999Z,13.70
2019-05-21T19:37:54.905Z,13.70
2019-05-21T19:40:23.758Z,13.60
2019-05-21T19:42:55.295Z,13.60
2019-05-21T19:45:22.638Z,13.60
2019-05-21T19:47:57.124Z,13.60
2019-05-21T19:50:25.696Z,13.60
2019-05-21T19:52:54.293Z,13.60
2019-05-21T19:55:24.461Z,13.60
2019-05-21T19:57:54.048Z,13.60
2019-05-21T20:00:24.137Z,13.60
2019-05-21T20:02:53.226Z,13.60
2019-05-21T20:05:22.064Z,13.60
2019-05-21T20:07:50.758Z,13.60
2019-05-21T20:10:19.782Z,13.60
2019-05-21T20:12:48.477Z,13.60
2019-05-21T20:15:17.304Z,13.60
2019-05-21T20:17:50.972Z,13.50
2019-05-21T20:20:20.629Z,13.50
2019-05-21T20:22:49.301Z,13.50
2019-05-21T20:25:18.527Z,13.40
2019-05-21T20:27:47.723Z,13.40
2019-05-21T20:30:18.842Z,13.40
2019-05-21T20:32:49.494Z,13.40
2019-05-21T20:35:18.707Z,13.40
2019-05-21T20:37:49.026Z,13.30
2019-05-21T20:40:18.530Z,13.30
2019-05-21T20:42:48.246Z,13.20
2019-05-21T20:45:18.910Z,13.20
2019-05-21T20:47:48.063Z,13.20
2019-05-21T20:50:19.005Z,13.20
2019-05-21T20:52:48.319Z,13.20
2019-05-21T20:55:18.075Z,13.10
2019-05-21T20:57:47.156Z,13.10
2019-05-21T21:00:18.940Z,13.10
2019-05-21T21:02:48.437Z,13.10
2019-05-21T21:05:20.277Z,13.10
2019-05-21T21:07:49.504Z,13.10
2019-05-21T21:10:18.522Z,13.10
2019-05-21T21:12:48.216Z,13.10
2019-05-21T21:15:17.333Z,13.10
2019-05-21T21:17:45.914Z,13.10
2019-05-21T21:20:15.366Z,13.10
2019-05-21T21:22:44.211Z,13.10
2019-05-21T21:25:14.199Z,13.20
2019-05-21T21:27:42.768Z,13.20
2019-05-21T21:30:11.502Z,13.20
2019-05-21T21:32:40.314Z,13.20
2019-05-21T21:35:10.775Z,13.10
2019-05-21T21:37:39.611Z,13.20
2019-05-21T21:40:10.353Z,13.20
2019-05-21T21:42:40.003Z,13.20
2019-05-21T21:45:09.329Z,13.20
2019-05-21T21:47:38.404Z,13.20
2019-05-21T21:50:07.608Z,13.20
2019-05-21T21:52:36.706Z,13.20
2019-05-21T21:55:08.903Z,13.20
2019-05-21T21:57:37.581Z,13.20
2019-05-21T22:00:21.434Z,13.20
2019-05-21T22:02:51.032Z,13.20
2019-05-21T22:05:28.622Z,13.20
2019-05-21T22:07:57.378Z,13.20
2019-05-21T22:10:26.093Z,13.20
2019-05-21T22:12:54.762Z,13.20
2019-05-21T22:15:23.560Z,13.10
2019-05-21T22:17:52.252Z,13.20
2019-05-21T22:20:20.912Z,13.20
2019-05-21T22:22:49.960Z,13.20
2019-05-21T22:25:19.017Z,13.20
2019-05-21T22:27:47.728Z,13.10
2019-05-21T22:30:16.828Z,13.20
2019-05-21T22:32:45.461Z,13.20
2019-05-21T22:35:14.166Z,13.10
2019-05-21T22:37:42.916Z,13.10
2019-05-21T22:40:11.625Z,13.10
2019-05-21T22:42:40.529Z,13.10
2019-05-21T22:45:11.321Z,13.10
2019-05-21T22:47:40.212Z,13.10
2019-05-21T22:50:14.899Z,13.10
2019-05-21T22:52:43.467Z,13.10
2019-05-21T22:55:12.344Z,13.00
2019-05-21T22:57:41.205Z,13.10
2019-05-21T23:00:10.979Z,13.10
2019-05-21T23:02:41.585Z,13.10
2019-05-21T23:05:10.770Z,13.10
2019-05-21T23:07:39.494Z,13.10
2019-05-21T23:10:11.013Z,13.00
2019-05-21T23:12:40.289Z,13.00
2019-05-21T23:15:23.658Z,13.00
2019-05-21T23:17:40.371Z,12.90
2019-05-21T23:20:14.135Z,12.90
2019-05-21T23:22:44.700Z,12.90
2019-05-21T23:25:13.418Z,12.80
2019-05-21T23:27:42.686Z,12.80
2019-05-21T23:30:16.483Z,12.80
2019-05-21T23:32:45.960Z,12.70
2019-05-21T23:35:16.331Z,12.70
2019-05-21T23:37:46.674Z,12.70
2019-05-21T23:40:17.162Z,12.70
2019-05-21T23:42:46.267Z,12.60
2019-05-21T23:45:15.458Z,12.60
2019-05-21T23:47:44.219Z,12.60
2019-05-21T23:50:14.298Z,12.60
2019-05-21T23:52:43.192Z,12.60
2019-05-21T23:55:12.483Z,12.60
2019-05-21T23:57:42.193Z,12.60
